createdAt,value
2017-12-25T00:02:16.334Z,8.50
2017-12-25T00:04:43.976Z,7.70
2017-12-25T00:07:11.687Z,9.33
2017-12-25T00:09:39.765Z,8.47
2017-12-25T00:12:07.802Z,7.60
2017-12-25T00:14:35.467Z,8.57
2017-12-25T00:17:03.098Z,7.97
2017-12-25T00:19:31.567Z,8.60
2017-12-25T00:21:59.301Z,8.77
2017-12-25T00:24:27.374Z,8.80
2017-12-25T00:26:55.448Z,8.40
2017-12-25T00:29:23.512Z,9.00
2017-12-25T00:31:51.581Z,7.97
2017-12-25T00:34:19.654Z,8.47
2017-12-25T00:36:47.755Z,8.13
2017-12-25T00:39:15.486Z,9.00
2017-12-25T00:41:43.155Z,8.60
2017-12-25T00:44:11.215Z,7.50
2017-12-25T00:46:39.002Z,8.50
2017-12-25T00:49:07.045Z,7.40
2017-12-25T00:51:34.707Z,8.13
2017-12-25T00:54:02.352Z,8.23
2017-12-25T00:56:30.083Z,7.50
2017-12-25T00:58:57.755Z,6.90
2017-12-25T01:01:25.484Z,7.93
2017-12-25T01:03:53.511Z,7.73
2017-12-25T01:06:21.171Z,7.67
2017-12-25T01:08:48.823Z,7.43
2017-12-25T01:11:16.529Z,8.80
2017-12-25T01:13:44.624Z,7.40
2017-12-25T01:16:12.372Z,6.53
2017-12-25T01:18:40.406Z,7.33
2017-12-25T01:21:08.110Z,7.03
2017-12-25T01:23:36.140Z,7.47
2017-12-25T01:26:03.817Z,6.77
2017-12-25T01:28:31.887Z,6.30
2017-12-25T01:30:59.570Z,6.00
2017-12-25T01:33:27.607Z,6.30
2017-12-25T01:35:55.266Z,6.20
2017-12-25T01:38:22.971Z,6.80
2017-12-25T01:40:51.005Z,5.93
2017-12-25T01:43:18.659Z,6.50
2017-12-25T01:45:46.364Z,5.83
2017-12-25T01:48:14.421Z,5.90
2017-12-25T01:50:42.093Z,7.07
2017-12-25T01:53:10.165Z,5.80
2017-12-25T01:55:38.243Z,6.13
2017-12-25T01:58:22.796Z,6.27
2017-12-25T02:01:08.205Z,5.60
2017-12-25T02:03:35.867Z,5.90
2017-12-25T02:06:03.539Z,5.60
2017-12-25T02:08:33.599Z,5.80
2017-12-25T02:11:01.282Z,6.13
2017-12-25T02:13:29.309Z,5.50
2017-12-25T02:15:56.956Z,5.60
2017-12-25T02:18:24.608Z,5.90
2017-12-25T02:20:52.341Z,6.13
2017-12-25T02:23:20.377Z,5.43
2017-12-25T02:25:48.036Z,5.23
2017-12-25T02:28:15.740Z,5.30
2017-12-25T02:30:43.770Z,5.47
2017-12-25T02:33:11.459Z,5.47
2017-12-25T02:35:39.498Z,5.27
2017-12-25T02:38:07.198Z,4.67
2017-12-25T02:40:35.300Z,4.50
2017-12-25T02:43:02.953Z,4.70
2017-12-25T02:45:30.695Z,4.73
2017-12-25T02:47:58.742Z,4.87
2017-12-25T02:50:26.396Z,5.23
2017-12-25T02:52:54.097Z,4.10
2017-12-25T02:55:21.860Z,5.37
2017-12-25T02:57:49.911Z,5.00
2017-12-25T03:00:17.559Z,4.70
2017-12-25T03:02:45.217Z,4.63
2017-12-25T03:05:12.898Z,3.77
2017-12-25T03:07:40.551Z,4.50
2017-12-25T03:10:08.204Z,4.47
2017-12-25T03:12:35.903Z,4.27
2017-12-25T03:15:03.956Z,4.70
2017-12-25T03:17:31.636Z,4.90
2017-12-25T03:19:59.676Z,4.43
2017-12-25T03:22:27.318Z,4.10
2017-12-25T03:24:55.032Z,4.17
2017-12-25T03:27:23.067Z,4.37
2017-12-25T03:29:50.767Z,3.80
2017-12-25T03:32:18.846Z,4.50
2017-12-25T03:34:46.497Z,3.90
2017-12-25T03:37:14.548Z,3.77
2017-12-25T03:39:42.204Z,3.80
2017-12-25T03:42:09.838Z,3.10
2017-12-25T03:44:37.558Z,3.40
2017-12-25T03:47:05.623Z,3.73
2017-12-25T03:49:33.663Z,3.30
2017-12-25T03:52:01.367Z,2.80
2017-12-25T03:54:29.467Z,2.40
2017-12-25T03:56:57.111Z,3.30
2017-12-25T03:59:24.858Z,2.63
2017-12-25T04:01:52.924Z,2.03
2017-12-25T04:04:20.966Z,2.30
2017-12-25T04:06:48.615Z,2.13
2017-12-25T04:09:16.309Z,2.00
2017-12-25T04:11:43.971Z,1.80
2017-12-25T04:14:11.651Z,1.60
2017-12-25T04:16:39.711Z,1.90
2017-12-25T04:19:07.740Z,1.60
2017-12-25T04:21:35.377Z,1.47
2017-12-25T04:24:03.022Z,1.70
2017-12-25T04:26:30.684Z,1.50
2017-12-25T04:28:58.707Z,1.47
2017-12-25T04:31:26.398Z,1.80
2017-12-25T04:33:54.452Z,2.40
2017-12-25T04:36:22.091Z,2.00
2017-12-25T04:38:49.751Z,2.17
2017-12-25T04:41:17.457Z,3.17
2017-12-25T04:43:45.490Z,2.80
2017-12-25T04:46:13.147Z,3.87
2017-12-25T04:48:40.794Z,3.73
2017-12-25T04:51:08.550Z,4.27
2017-12-25T04:53:36.238Z,4.97
2017-12-25T04:56:03.867Z,4.90
2017-12-25T04:58:31.642Z,6.10
2017-12-25T05:00:59.366Z,5.10
2017-12-25T05:03:27.395Z,6.27
2017-12-25T05:05:55.047Z,6.53
2017-12-25T05:08:22.695Z,6.63
2017-12-25T05:10:50.331Z,6.60
2017-12-25T05:13:18.376Z,6.10
2017-12-25T05:15:46.055Z,6.10
2017-12-25T05:18:13.699Z,7.50
2017-12-25T05:20:41.351Z,6.10
2017-12-25T05:23:09.060Z,7.00
2017-12-25T05:25:37.098Z,6.77
2017-12-25T05:28:04.775Z,7.20
2017-12-25T05:30:32.443Z,7.97
2017-12-25T05:33:00.511Z,7.60
2017-12-25T05:35:28.585Z,7.77
2017-12-25T05:37:56.891Z,8.97
2017-12-25T05:40:24.626Z,7.90
2017-12-25T05:42:52.656Z,8.10
2017-12-25T05:45:20.310Z,8.57
2017-12-25T05:47:47.970Z,9.33
2017-12-25T05:50:15.616Z,7.77
2017-12-25T05:52:43.291Z,8.47
2017-12-25T05:55:11.011Z,8.03
2017-12-25T05:57:39.083Z,6.97
2017-12-25T06:00:07.165Z,8.37
2017-12-25T06:02:35.231Z,8.13
2017-12-25T06:05:03.270Z,7.80
2017-12-25T06:07:30.922Z,7.77
2017-12-25T06:09:58.567Z,7.90
2017-12-25T06:12:26.212Z,6.80
2017-12-25T06:14:53.974Z,7.27
2017-12-25T06:17:21.720Z,6.60
2017-12-25T06:19:49.368Z,7.00
2017-12-25T06:22:17.426Z,6.37
2017-12-25T06:24:45.103Z,5.50
2017-12-25T06:27:13.175Z,5.17
2017-12-25T06:29:41.232Z,6.00
2017-12-25T06:32:08.876Z,5.40
2017-12-25T06:34:36.607Z,4.90
2017-12-25T06:37:04.570Z,4.70
2017-12-25T06:39:32.304Z,4.17
2017-12-25T06:42:00.327Z,5.80
2017-12-25T06:44:28.334Z,5.07
2017-12-25T06:46:56.034Z,5.20
2017-12-25T06:49:23.767Z,5.40
2017-12-25T06:51:51.833Z,5.60
2017-12-25T06:54:19.505Z,4.90
2017-12-25T06:56:47.539Z,4.90
2017-12-25T06:59:15.201Z,5.20
2017-12-25T07:01:42.845Z,5.53
2017-12-25T07:04:10.588Z,4.77
2017-12-25T07:06:38.251Z,4.80
2017-12-25T07:09:05.987Z,5.53
2017-12-25T07:11:34.027Z,5.37
2017-12-25T07:14:01.723Z,4.90
2017-12-25T07:16:29.792Z,5.60
2017-12-25T07:18:57.864Z,5.17
2017-12-25T07:21:25.926Z,4.93
2017-12-25T07:23:53.563Z,5.00
2017-12-25T07:26:21.198Z,4.93
2017-12-25T07:28:48.851Z,5.43
2017-12-25T07:31:16.664Z,5.03
2017-12-25T07:33:44.295Z,5.30
2017-12-25T07:36:11.955Z,4.97
2017-12-25T07:38:39.676Z,4.67
2017-12-25T07:41:07.754Z,4.57
2017-12-25T07:43:35.407Z,4.53
2017-12-25T07:46:03.464Z,4.43
2017-12-25T07:48:31.112Z,3.67
2017-12-25T07:50:58.800Z,4.07
2017-12-25T07:53:26.833Z,3.70
2017-12-25T07:55:54.475Z,3.60
2017-12-25T07:58:22.190Z,3.10
2017-12-25T08:00:50.264Z,3.33
2017-12-25T08:03:18.331Z,3.30
2017-12-25T08:05:45.999Z,3.70
2017-12-25T08:08:14.028Z,2.90
2017-12-25T08:10:41.723Z,3.27
2017-12-25T08:13:09.784Z,3.10
2017-12-25T08:15:37.417Z,3.33
2017-12-25T08:18:05.063Z,2.80
2017-12-25T08:20:32.799Z,2.70
2017-12-25T08:23:00.827Z,2.57
2017-12-25T08:25:29.073Z,2.90
2017-12-25T08:27:56.740Z,2.57
2017-12-25T08:30:24.388Z,3.40
2017-12-25T08:32:52.189Z,3.20
2017-12-25T08:35:19.852Z,2.37
2017-12-25T08:37:47.514Z,2.67
2017-12-25T08:40:15.160Z,2.53
2017-12-25T08:42:42.819Z,2.20
2017-12-25T08:45:10.477Z,2.23
2017-12-25T08:47:38.219Z,2.13
2017-12-25T08:50:05.982Z,5.00
2017-12-25T08:52:33.625Z,6.37
2017-12-25T08:55:01.704Z,4.27
2017-12-25T08:57:29.775Z,2.80
2017-12-25T08:59:57.853Z,2.03
2017-12-25T09:02:25.514Z,1.93
2017-12-25T09:04:53.667Z,1.70
2017-12-25T09:07:21.716Z,1.63
2017-12-25T09:09:49.444Z,2.07
2017-12-25T09:12:17.098Z,1.37
2017-12-25T09:14:44.743Z,1.70
2017-12-25T09:17:12.788Z,1.40
2017-12-25T09:19:40.453Z,1.30
2017-12-25T09:22:08.096Z,1.47
2017-12-25T09:24:35.759Z,1.40
2017-12-25T09:27:03.455Z,1.37
2017-12-25T09:29:31.488Z,1.00
2017-12-25T09:31:59.131Z,1.43
2017-12-25T09:34:26.796Z,0.80
2017-12-25T09:36:54.527Z,1.30
2017-12-25T09:39:22.295Z,3.27
2017-12-25T09:41:50.059Z,1.10
2017-12-25T09:44:17.716Z,0.93
2017-12-25T09:46:45.353Z,1.23
2017-12-25T09:49:13.040Z,1.10
2017-12-25T09:51:40.700Z,1.30
2017-12-25T09:54:08.413Z,1.53
2017-12-25T09:56:36.132Z,1.37
2017-12-25T09:59:03.891Z,1.20
2017-12-25T10:01:31.626Z,1.27
2017-12-25T10:03:59.289Z,1.90
2017-12-25T10:06:26.918Z,1.67
2017-12-25T10:08:54.632Z,1.43
2017-12-25T10:11:22.709Z,1.60
2017-12-25T10:13:50.424Z,1.53
2017-12-25T10:16:18.055Z,1.70
2017-12-25T10:18:45.786Z,1.83
2017-12-25T10:21:13.856Z,3.40
2017-12-25T10:23:41.924Z,1.50
2017-12-25T10:26:10.040Z,1.50
2017-12-25T10:28:37.675Z,1.73
2017-12-25T10:31:05.331Z,1.53
2017-12-25T10:33:33.384Z,2.00
2017-12-25T10:36:01.022Z,1.47
2017-12-25T10:38:28.664Z,1.80
2017-12-25T10:40:56.378Z,1.70
2017-12-25T10:43:24.417Z,1.63
2017-12-25T10:45:52.071Z,1.73
2017-12-25T10:48:19.776Z,1.83
2017-12-25T10:50:47.804Z,1.83
2017-12-25T10:53:15.512Z,1.87
2017-12-25T10:55:43.588Z,1.73
2017-12-25T10:58:11.655Z,1.93
2017-12-25T11:00:45.411Z,1.37
2017-12-25T11:03:13.135Z,1.80
2017-12-25T11:05:41.577Z,2.80
2017-12-25T11:08:09.654Z,1.80
2017-12-25T11:10:37.308Z,2.20
2017-12-25T11:13:04.975Z,2.30
2017-12-25T11:15:32.688Z,2.60
2017-12-25T11:18:00.323Z,2.17
2017-12-25T11:20:28.372Z,2.17
2017-12-25T11:22:56.060Z,2.03
2017-12-25T11:25:24.096Z,1.83
2017-12-25T11:27:51.744Z,1.90
2017-12-25T11:30:19.414Z,2.53
2017-12-25T11:32:48.032Z,1.87
2017-12-25T11:35:16.107Z,2.23
2017-12-25T11:37:44.296Z,2.03
2017-12-25T11:40:12.044Z,2.00
2017-12-25T11:42:40.124Z,2.60
2017-12-25T11:45:08.188Z,2.07
2017-12-25T11:47:36.244Z,2.07
2017-12-25T11:50:03.885Z,1.73
2017-12-25T11:52:31.584Z,1.93
2017-12-25T11:54:59.624Z,1.60
2017-12-25T11:57:27.286Z,2.03
2017-12-25T11:59:54.955Z,1.53
2017-12-25T12:02:22.641Z,1.60
2017-12-25T12:04:50.691Z,1.60
2017-12-25T12:07:18.373Z,1.43
2017-12-25T12:09:46.424Z,2.00
2017-12-25T12:12:14.071Z,1.97
2017-12-25T12:14:41.872Z,1.67
2017-12-25T12:17:09.639Z,1.20
2017-12-25T12:19:37.694Z,1.57
2017-12-25T12:22:05.372Z,1.10
2017-12-25T12:24:33.416Z,1.27
2017-12-25T12:27:01.049Z,1.20
2017-12-25T12:29:28.715Z,1.40
2017-12-25T12:31:56.430Z,1.23
2017-12-25T12:34:24.506Z,1.40
2017-12-25T12:36:52.586Z,1.00
2017-12-25T12:39:20.237Z,1.20
2017-12-25T12:41:48.268Z,1.00
2017-12-25T12:44:15.931Z,1.30
2017-12-25T12:46:43.635Z,1.60
2017-12-25T12:49:11.691Z,1.40
2017-12-25T12:51:39.753Z,1.60
2017-12-25T12:54:07.440Z,1.70
2017-12-25T12:56:35.535Z,1.40
2017-12-25T12:59:03.206Z,1.60
2017-12-25T13:01:30.837Z,1.83
2017-12-25T13:03:58.879Z,2.00
2017-12-25T13:06:26.555Z,1.53
2017-12-25T13:08:54.322Z,1.70
2017-12-25T13:11:22.372Z,1.70
2017-12-25T13:13:50.056Z,1.73
2017-12-25T13:16:18.091Z,1.77
2017-12-25T13:18:46.005Z,1.97
2017-12-25T13:21:13.777Z,1.60
2017-12-25T13:23:41.808Z,1.87
2017-12-25T13:26:09.452Z,1.90
2017-12-25T13:28:37.260Z,2.27
2017-12-25T13:31:04.916Z,2.10
2017-12-25T13:33:32.947Z,2.00
2017-12-25T13:36:00.667Z,1.83
2017-12-25T13:38:29.192Z,2.07
2017-12-25T13:40:56.835Z,1.90
2017-12-25T13:43:24.666Z,2.30
2017-12-25T13:45:52.734Z,1.93
2017-12-25T13:48:20.766Z,1.43
2017-12-25T13:50:48.467Z,1.90
2017-12-25T13:53:16.543Z,1.63
2017-12-25T13:55:44.730Z,1.80
2017-12-25T13:58:12.784Z,1.37
2017-12-25T14:00:40.815Z,2.23
2017-12-25T14:03:08.519Z,1.87
2017-12-25T14:05:36.584Z,2.03
2017-12-25T14:08:04.668Z,1.83
2017-12-25T14:10:32.739Z,1.93
2017-12-25T14:13:00.804Z,1.63
2017-12-25T14:15:28.889Z,1.60
2017-12-25T14:17:56.932Z,1.40
2017-12-25T14:20:24.611Z,1.57
2017-12-25T14:22:53.860Z,1.37
2017-12-25T14:25:21.500Z,1.47
2017-12-25T14:27:49.234Z,1.63
2017-12-25T14:30:17.300Z,1.80
2017-12-25T14:32:44.936Z,3.10
2017-12-25T14:35:12.615Z,1.20
2017-12-25T14:37:40.292Z,1.70
2017-12-25T14:40:08.336Z,1.50
2017-12-25T14:42:36.008Z,2.20
2017-12-25T14:45:03.686Z,1.40
2017-12-25T14:47:31.760Z,1.10
2017-12-25T14:49:59.823Z,1.90
2017-12-25T14:52:27.855Z,1.20
2017-12-25T14:54:55.485Z,1.20
2017-12-25T14:57:23.151Z,1.57
2017-12-25T14:59:50.897Z,1.40
2017-12-25T15:02:18.959Z,1.80
2017-12-25T15:04:47.023Z,1.40
2017-12-25T15:07:15.090Z,1.00
2017-12-25T15:09:42.750Z,1.37
2017-12-25T15:12:10.410Z,1.43
2017-12-25T15:14:38.088Z,1.60
2017-12-25T15:17:06.164Z,2.10
2017-12-25T15:19:34.264Z,1.50
2017-12-25T15:22:01.899Z,1.27
2017-12-25T15:24:29.930Z,1.00
2017-12-25T15:26:57.657Z,0.80
2017-12-25T15:29:25.283Z,1.67
2017-12-25T15:31:53.396Z,1.20
2017-12-25T15:34:21.137Z,1.70
2017-12-25T15:36:49.196Z,1.10
2017-12-25T15:39:17.239Z,0.80
2017-12-25T15:41:44.896Z,1.27
2017-12-25T15:44:12.596Z,1.00
2017-12-25T15:46:40.655Z,1.23
2017-12-25T15:49:08.318Z,1.00
2017-12-25T15:51:36.020Z,0.93
2017-12-25T15:54:03.751Z,0.87
2017-12-25T15:56:31.828Z,1.00
2017-12-25T15:58:59.897Z,1.00
2017-12-25T16:01:27.966Z,0.97
2017-12-25T16:03:56.014Z,1.10
2017-12-25T16:06:23.656Z,1.13
2017-12-25T16:08:51.364Z,1.10
2017-12-25T16:11:19.431Z,0.80
2017-12-25T16:13:47.084Z,0.93
2017-12-25T16:16:14.716Z,1.77
2017-12-25T16:18:42.431Z,1.70
2017-12-25T16:21:10.497Z,1.00
2017-12-25T16:23:38.571Z,1.40
2017-12-25T16:26:06.641Z,1.63
2017-12-25T16:28:34.786Z,1.30
2017-12-25T16:31:02.427Z,1.40
2017-12-25T16:33:30.084Z,1.17
2017-12-25T16:35:57.807Z,1.73
2017-12-25T16:38:25.849Z,1.50
2017-12-25T16:40:53.534Z,1.10
2017-12-25T16:43:21.568Z,1.50
2017-12-25T16:45:49.317Z,1.70
2017-12-25T16:48:16.954Z,1.30
2017-12-25T16:50:44.603Z,1.23
2017-12-25T16:53:12.236Z,1.43
2017-12-25T16:55:39.919Z,1.60
2017-12-25T16:58:07.950Z,1.43
2017-12-25T17:00:35.607Z,1.30
2017-12-25T17:03:03.308Z,1.27
2017-12-25T17:05:31.348Z,1.30
2017-12-25T17:07:59.004Z,1.20
2017-12-25T17:10:26.704Z,1.30
2017-12-25T17:12:54.745Z,1.40
2017-12-25T17:15:22.439Z,1.17
2017-12-25T17:17:50.511Z,1.80
2017-12-25T17:20:18.584Z,1.40
2017-12-25T17:22:46.619Z,1.47
2017-12-25T17:25:14.306Z,1.30
2017-12-25T17:27:41.951Z,1.23
2017-12-25T17:30:09.647Z,1.83
2017-12-25T17:32:37.699Z,1.30
2017-12-25T17:35:05.339Z,1.40
2017-12-25T17:37:33.030Z,2.57
2017-12-25T17:40:01.106Z,1.77
2017-12-25T17:42:29.144Z,1.37
2017-12-25T17:44:56.791Z,1.13
2017-12-25T17:47:24.463Z,1.13
2017-12-25T17:49:52.157Z,1.27
2017-12-25T17:52:20.191Z,1.20
2017-12-25T17:54:47.860Z,1.20
2017-12-25T17:57:15.560Z,1.03
2017-12-25T17:59:43.635Z,1.60
2017-12-25T18:02:11.701Z,1.60
2017-12-25T18:04:39.779Z,1.23
2017-12-25T18:07:07.436Z,1.67
2017-12-25T18:09:35.492Z,1.40
2017-12-25T18:12:03.165Z,1.30
2017-12-25T18:14:30.799Z,1.90
2017-12-25T18:16:58.479Z,1.80
2017-12-25T18:19:26.119Z,1.53
2017-12-25T18:21:53.759Z,1.63
2017-12-25T18:24:21.482Z,1.20
2017-12-25T18:26:49.519Z,1.70
2017-12-25T18:29:17.148Z,1.60
2017-12-25T18:31:44.809Z,2.20
2017-12-25T18:34:12.448Z,1.70
2017-12-25T18:36:40.107Z,1.40
2017-12-25T18:39:07.898Z,1.40
2017-12-25T18:41:35.534Z,1.80
2017-12-25T18:44:03.177Z,1.73
2017-12-25T18:46:31.236Z,1.67
2017-12-25T18:48:58.910Z,1.83
2017-12-25T18:51:26.949Z,1.40
2017-12-25T18:53:54.618Z,1.60
2017-12-25T18:56:22.263Z,1.60
2017-12-25T18:58:49.980Z,1.70
2017-12-25T19:01:18.031Z,1.87
2017-12-25T19:03:45.687Z,2.00
2017-12-25T19:06:13.327Z,2.07
2017-12-25T19:08:41.007Z,1.90
2017-12-25T19:11:08.643Z,1.70
2017-12-25T19:13:36.354Z,2.10
2017-12-25T19:16:04.413Z,2.03
2017-12-25T19:18:32.052Z,2.07
2017-12-25T19:20:59.748Z,1.97
2017-12-25T19:23:27.813Z,1.50
2017-12-25T19:25:55.449Z,2.23
2017-12-25T19:28:23.139Z,2.13
2017-12-25T19:30:51.211Z,2.20
2017-12-25T19:33:19.255Z,2.30
2017-12-25T19:35:46.895Z,1.80
2017-12-25T19:38:14.611Z,1.97
2017-12-25T19:40:42.721Z,2.40
2017-12-25T19:43:10.439Z,3.07
2017-12-25T19:45:38.494Z,3.13
2017-12-25T19:48:06.148Z,2.17
2017-12-25T19:50:33.838Z,1.67
2017-12-25T19:53:01.952Z,1.90
2017-12-25T19:55:29.827Z,1.77
2017-12-25T19:57:57.468Z,2.50
2017-12-25T20:00:25.203Z,1.90
2017-12-25T20:02:53.280Z,2.70
2017-12-25T20:05:21.306Z,3.10
2017-12-25T20:07:48.967Z,3.10
2017-12-25T20:10:16.612Z,2.60
2017-12-25T20:12:44.295Z,3.03
2017-12-25T20:15:12.000Z,3.37
2017-12-25T20:17:40.056Z,3.50
2017-12-25T20:20:07.692Z,3.20
2017-12-25T20:22:35.351Z,3.33
2017-12-25T20:25:03.046Z,3.30
2017-12-25T20:27:31.071Z,3.23
2017-12-25T20:29:58.740Z,2.87
2017-12-25T20:32:26.460Z,3.60
2017-12-25T20:34:54.489Z,3.87
2017-12-25T20:37:22.188Z,6.00
2017-12-25T20:39:50.255Z,3.97
2017-12-25T20:42:18.330Z,3.60
2017-12-25T20:44:46.431Z,4.20
2017-12-25T20:47:14.159Z,3.70
2017-12-25T20:49:42.227Z,4.43
2017-12-25T20:52:09.883Z,3.80
2017-12-25T20:54:37.580Z,3.47
2017-12-25T20:57:05.316Z,3.93
2017-12-25T20:59:32.977Z,3.50
2017-12-25T21:02:00.643Z,3.40
2017-12-25T21:04:28.681Z,3.30
2017-12-25T21:06:56.344Z,3.57
2017-12-25T21:09:23.975Z,3.17
2017-12-25T21:11:51.704Z,3.40
2017-12-25T21:14:19.776Z,3.37
2017-12-25T21:16:47.847Z,3.80
2017-12-25T21:19:15.869Z,3.70
2017-12-25T21:21:43.532Z,3.00
2017-12-25T21:24:11.180Z,3.20
2017-12-25T21:26:38.912Z,3.80
2017-12-25T21:29:07.072Z,3.80
2017-12-25T21:31:35.108Z,4.33
2017-12-25T21:34:02.807Z,4.10
2017-12-25T21:36:30.882Z,3.40
2017-12-25T21:38:58.914Z,3.97
2017-12-25T21:41:26.545Z,3.50
2017-12-25T21:43:54.226Z,5.10
2017-12-25T21:46:21.948Z,4.80
2017-12-25T21:48:50.015Z,4.47
2017-12-25T21:51:18.084Z,5.20
2017-12-25T21:53:46.117Z,5.03
2017-12-25T21:56:13.828Z,4.90
2017-12-25T21:58:41.884Z,4.70
2017-12-25T22:01:09.974Z,5.50
2017-12-25T22:03:37.999Z,5.30
2017-12-25T22:06:05.671Z,5.43
2017-12-25T22:08:33.307Z,6.03
2017-12-25T22:11:00.967Z,5.53
2017-12-25T22:13:28.733Z,6.07
2017-12-25T22:15:56.442Z,6.93
2017-12-25T22:18:24.108Z,7.23
2017-12-25T22:20:52.271Z,6.90
2017-12-25T22:23:19.899Z,6.90
2017-12-25T22:25:47.608Z,7.00
2017-12-25T22:28:15.379Z,6.67
2017-12-25T22:30:43.439Z,6.93
2017-12-25T22:33:11.468Z,7.43
2017-12-25T22:35:39.171Z,8.67
2017-12-25T22:38:07.244Z,8.37
2017-12-25T22:40:35.287Z,7.80
2017-12-25T22:43:02.932Z,7.80
2017-12-25T22:45:30.646Z,7.97
2017-12-25T22:47:58.682Z,8.77
2017-12-25T22:50:26.334Z,8.53
2017-12-25T22:52:53.987Z,8.90
2017-12-25T22:55:21.711Z,8.80
2017-12-25T22:57:49.360Z,9.20
2017-12-25T23:00:17.440Z,9.70
2017-12-25T23:02:45.776Z,10.87
2017-12-25T23:05:13.846Z,9.90
2017-12-25T23:07:41.520Z,9.80
2017-12-25T23:10:09.250Z,9.60
2017-12-25T23:12:37.001Z,10.20
2017-12-25T23:15:04.799Z,10.87
2017-12-25T23:17:32.764Z,11.20
2017-12-25T23:20:00.487Z,10.67
2017-12-25T23:22:28.632Z,11.00
2017-12-25T23:24:57.453Z,12.03
2017-12-25T23:27:25.142Z,11.47
2017-12-25T23:29:53.908Z,11.40
2017-12-25T23:32:21.912Z,11.60
2017-12-25T23:34:50.178Z,11.50
2017-12-25T23:37:18.282Z,11.93
2017-12-25T23:39:46.116Z,11.73
2017-12-25T23:42:14.102Z,12.20
2017-12-25T23:44:43.445Z,12.20
2017-12-25T23:47:11.521Z,12.43
2017-12-25T23:49:39.738Z,13.50
2017-12-25T23:52:07.548Z,12.97
2017-12-25T23:54:35.761Z,12.87
2017-12-25T23:57:03.505Z,14.20
2017-12-25T23:59:31.261Z,12.67
